Time;durP1;ratioP1;P1;durP2;ratioP2;P2;SDS_P1;SDS_P2;PMS_P1;PMS_P2;Temp;Humidity;BMP_temperature;BMP_pressure;BME280_temperature;BME280_humidity;BME280_pressure;Samples;Min_cycle;Max_cycle;Signal;HPM_P1;HPM_P2
2021/03/21 00:00:46;;;;;;;92.70;39.60;;;;;;;-4.46;62.22;98865.01;124462;1112;27515;-80
2021/03/21 00:03:17;;;;;;;97.77;37.50;;;;;;;-4.44;63.00;98859.55;124446;1113;23033;-80
2021/03/21 00:05:44;;;;;;;86.57;33.38;;;;;;;-4.46;62.74;98857.03;124451;1115;23093;-80
2021/03/21 00:08:20;;;;;;;77.63;32.10;;;;;;;-4.42;62.89;98857.59;124406;1116;23027;-80
2021/03/21 00:10:53;;;;;;;87.80;33.77;;;;;;;-4.42;63.64;98855.77;124712;1111;24756;-80
2021/03/21 00:13:21;;;;;;;85.30;32.57;;;;;;;-4.43;63.55;98851.41;124551;1113;24664;-80
2021/03/21 00:15:49;;;;;;;75.20;30.62;;;;;;;-4.42;63.79;98854.94;124479;1115;24649;-80
2021/03/21 00:18:18;;;;;;;79.70;31.40;;;;;;;-4.43;63.87;98851.41;124401;1113;23084;-80
2021/03/21 00:20:46;;;;;;;83.17;33.28;;;;;;;-4.45;63.99;98845.41;124464;1113;23021;-80
2021/03/21 00:23:14;;;;;;;87.20;34.60;;;;;;;-4.47;63.56;98841.22;124393;1114;23260;-80
2021/03/21 00:25:40;;;;;;;95.00;36.97;;;;;;;-4.54;63.47;98837.44;124544;1113;27383;-80
2021/03/21 00:28:13;;;;;;;81.80;32.27;;;;;;;-4.58;64.03;98831.57;124444;1115;23027;-80
2021/03/21 00:30:43;;;;;;;82.53;32.87;;;;;;;-4.61;63.94;98834.50;124614;1113;23056;-80
2021/03/21 00:33:12;;;;;;;76.80;30.55;;;;;;;-4.65;63.83;98835.77;124441;1115;23078;-80
2021/03/21 00:35:39;;;;;;;88.43;32.53;;;;;;;-4.70;63.15;98830.02;124736;1111;22984;-80
2021/03/21 00:38:10;;;;;;;79.33;30.53;;;;;;;-4.73;63.87;98828.47;124412;1112;23179;-80
2021/03/21 00:40:36;;;;;;;75.87;31.40;;;;;;;-4.72;64.29;98818.70;124429;1114;23154;-80
2021/03/21 00:43:03;;;;;;;83.30;31.30;;;;;;;-4.73;64.26;98817.84;124396;1115;23129;-80
2021/03/21 00:45:30;;;;;;;78.95;32.75;;;;;;;-4.74;64.68;98824.15;124450;1116;24655;-80
2021/03/21 00:47:57;;;;;;;72.10;29.60;;;;;;;-4.75;64.46;98826.94;124381;1115;23025;-80
2021/03/21 00:50:31;;;;;;;77.10;31.03;;;;;;;-4.81;64.47;98815.88;124495;1112;23097;-80
2021/03/21 00:52:58;;;;;;;82.93;31.27;;;;;;;-4.87;64.23;98813.80;124464;1113;24569;-80
2021/03/21 00:55:26;;;;;;;79.93;30.23;;;;;;;-4.92;64.30;98805.39;124468;1113;23021;-80
2021/03/21 00:57:53;;;;;;;76.13;31.67;;;;;;;-4.93;64.56;98802.88;124457;1114;23036;-80
2021/03/21 01:00:23;;;;;;;70.87;30.10;;;;;;;-4.98;64.40;98803.27;124426;1112;23030;-80
2021/03/21 01:02:50;;;;;;;73.93;30.67;;;;;;;-5.05;64.46;98791.52;124486;1116;23012;-80
2021/03/21 01:05:43;;;;;;;74.47;29.37;;;;;;;-5.07;64.34;98791.66;124472;1111;26031;-80
2021/03/21 01:08:34;;;;;;;78.07;31.40;;;;;;;-5.06;64.63;98784.55;124403;1114;23135;-80
2021/03/21 01:11:08;;;;;;;82.33;30.77;;;;;;;-5.06;64.34;98773.94;124378;1114;26408;-81
2021/03/21 01:13:36;;;;;;;82.50;32.80;;;;;;;-5.05;64.66;98772.94;124454;1116;23261;-81
2021/03/21 01:16:09;;;;;;;86.60;32.97;;;;;;;-5.01;64.57;98771.67;124523;1116;23087;-80
2021/03/21 01:18:36;;;;;;;81.53;33.17;;;;;;;-5.00;64.59;98765.40;124479;1113;23031;-80
2021/03/21 01:21:05;;;;;;;101.00;37.53;;;;;;;-4.98;64.77;98758.95;124488;1116;23229;-80
2021/03/21 01:23:32;;;;;;;92.80;37.20;;;;;;;-4.97;65.10;98757.16;124671;1112;27673;-80
2021/03/21 01:25:59;;;;;;;98.75;38.60;;;;;;;-5.00;65.08;98752.95;124474;1113;23031;-80
2021/03/21 01:28:29;;;;;;;92.23;37.77;;;;;;;-5.03;65.33;98747.08;124683;1111;22998;-80
2021/03/21 01:30:59;;;;;;;92.73;37.30;;;;;;;-5.02;65.16;98751.42;124488;1112;23100;-80
2021/03/21 01:33:28;;;;;;;99.63;38.13;;;;;;;-5.02;65.77;98740.80;124490;1114;23078;-80
2021/03/21 01:35:55;;;;;;;97.75;39.18;;;;;;;-5.02;65.34;98740.80;124651;1112;23082;-80
2021/03/21 01:38:22;;;;;;;95.93;37.40;;;;;;;-5.03;65.08;98736.46;124401;1113;23090;-80
2021/03/21 01:40:53;;;;;;;93.57;37.97;;;;;;;-5.02;65.02;98732.84;124467;1114;24629;-80
2021/03/21 01:43:29;;;;;;;88.27;35.33;;;;;;;-5.06;64.56;98726.97;124476;1113;23089;-80
2021/03/21 01:45:56;;;;;;;88.13;32.13;;;;;;;-5.05;64.79;98722.48;124399;1115;23068;-80
2021/03/21 01:48:53;;;;;;;79.50;34.03;;;;;;;-5.06;64.77;98715.52;124591;1112;23047;-80
2021/03/21 01:51:29;;;;;;;77.10;32.43;;;;;;;-5.10;64.69;98714.92;124695;1113;23239;-80
2021/03/21 01:54:04;;;;;;;87.67;34.33;;;;;;;-5.13;64.64;98706.40;124473;1116;23215;-80
2021/03/21 01:56:33;;;;;;;87.97;33.53;;;;;;;-5.12;64.73;98702.78;124636;1111;27697;-80
2021/03/21 01:59:19;;;;;;;87.12;34.03;;;;;;;-5.16;64.78;98713.67;124407;1115;23034;-80
2021/03/21 02:01:47;;;;;;;92.30;34.33;;;;;;;-5.17;65.08;98709.36;124405;1115;23027;-80
2021/03/21 02:04:14;;;;;;;93.80;36.73;;;;;;;-5.13;65.22;98698.44;124404;1116;23086;-80
2021/03/21 02:07:03;;;;;;;88.50;34.97;;;;;;;-5.11;65.26;98696.51;124456;1116;23034;-80
2021/03/21 02:10:08;;;;;;;90.40;37.03;;;;;;;-5.12;65.24;98697.47;124456;1115;26418;-80
2021/03/21 02:12:49;;;;;;;89.93;37.00;;;;;;;-5.15;65.36;98682.67;124414;1116;26603;-80
2021/03/21 02:15:37;;;;;;;95.03;37.83;;;;;;;-5.18;65.45;98672.33;124465;1115;26415;-80
2021/03/21 02:18:21;;;;;;;88.00;38.00;;;;;;;-5.19;65.68;98665.33;124452;1114;23061;-80
2021/03/21 02:21:06;;;;;;;104.00;40.70;;;;;;;-5.23;65.85;98666.59;124488;1116;23131;-80
2021/03/21 02:24:12;;;;;;;96.13;37.87;;;;;;;-5.22;66.04;98663.80;124449;1114;23135;-80
2021/03/21 02:26:47;;;;;;;98.37;38.47;;;;;;;-5.21;66.37;98657.50;124470;1114;26415;-80
2021/03/21 02:29:28;;;;;;;97.87;39.60;;;;;;;-5.19;66.29;98654.70;124466;1114;23136;-80
2021/03/21 02:32:00;;;;;;;92.37;38.60;;;;;;;-5.23;66.67;98645.36;124412;1113;27358;-80
2021/03/21 02:34:50;;;;;;;92.07;37.77;;;;;;;-5.27;66.44;98651.94;124458;1114;23096;-80
2021/03/21 02:37:54;;;;;;;98.42;39.55;;;;;;;-5.29;66.58;98651.20;124397;1114;27390;-80
2021/03/21 02:40:39;;;;;;;100.90;39.80;;;;;;;-5.31;66.82;98635.45;124400;1116;27361;-80
2021/03/21 02:43:27;;;;;;;97.07;39.67;;;;;;;-5.31;66.85;98646.06;124495;1116;23099;-80
2021/03/21 02:45:58;;;;;;;98.83;38.37;;;;;;;-5.31;66.87;98626.63;124415;1114;23266;-80
2021/03/21 02:48:52;;;;;;;97.67;40.43;;;;;;;-5.30;66.99;98623.01;124508;1115;24850;-80
2021/03/21 02:51:41;;;;;;;106.33;40.47;;;;;;;-5.31;67.06;98623.97;124425;1115;24403;-80
2021/03/21 02:54:15;;;;;;;104.80;40.30;;;;;;;-5.35;67.12;98600.39;124716;1114;23045;-80
2021/03/21 02:56:45;;;;;;;104.05;39.75;;;;;;;-5.36;67.20;98600.53;124803;1113;23050;-80
2021/03/21 02:59:32;;;;;;;97.07;38.67;;;;;;;-5.39;66.88;98592.84;124733;1114;23106;-80
2021/03/21 03:02:10;;;;;;;104.87;38.93;;;;;;;-5.41;67.13;98597.45;124713;1114;26487;-81
2021/03/21 03:04:40;;;;;;;99.50;37.33;;;;;;;-5.44;67.54;98587.11;124683;1114;23087;-81
2021/03/21 03:07:25;;;;;;;90.50;37.33;;;;;;;-5.47;67.69;98588.23;124900;1115;23062;-81
2021/03/21 03:09:56;;;;;;;92.00;39.75;;;;;;;-5.48;68.56;98585.72;124721;1115;23049;-81
2021/03/21 03:12:32;;;;;;;99.90;37.80;;;;;;;-5.51;67.86;98586.83;124744;1115;23031;-81
2021/03/21 03:15:07;;;;;;;99.73;39.30;;;;;;;-5.52;68.24;98579.86;124700;1113;23046;-81
2021/03/21 03:17:39;;;;;;;101.23;40.40;;;;;;;-5.50;68.18;98572.59;124752;1114;23244;-80
2021/03/21 03:20:12;;;;;;;99.57;37.93;;;;;;;-5.47;68.61;98568.80;124784;1115;23030;-80
2021/03/21 03:22:57;;;;;;;92.63;37.13;;;;;;;-5.47;68.26;98555.54;125011;1114;23036;-80
2021/03/21 03:25:49;;;;;;;92.60;38.13;;;;;;;-5.47;68.50;98553.74;124683;1115;23090;-80
2021/03/21 03:28:15;;;;;;;96.30;35.93;;;;;;;-5.44;68.99;98544.66;124768;1114;23036;-80
2021/03/21 03:30:52;;;;;;;95.53;36.73;;;;;;;-5.42;68.85;98540.03;124753;1114;23107;-80
2021/03/21 03:33:20;;;;;;;89.70;34.27;;;;;;;-5.42;68.53;98532.94;124795;1114;23042;-80
2021/03/21 03:35:47;;;;;;;79.60;34.63;;;;;;;-5.44;68.48;98529.56;124910;1115;26441;-80
2021/03/21 03:38:15;;;;;;;83.13;33.53;;;;;;;-5.46;69.11;98523.56;124694;1115;24684;-80
2021/03/21 03:40:45;;;;;;;87.40;37.07;;;;;;;-5.47;68.99;98524.56;124871;1114;23219;-80
2021/03/21 03:43:29;;;;;;;;;;;;;;;-5.45;69.30;98524.39;124846;1114;26440;-81
2021/03/21 03:46:14;;;;;;;81.13;33.37;;;;;;;-5.50;69.14;98510.73;124767;1113;21533;-81
2021/03/21 03:48:53;;;;;;;79.50;34.17;;;;;;;-5.54;69.47;98510.19;124645;1115;23015;-81
2021/03/21 03:51:42;;;;;;;;;;;;;;;-5.53;69.62;98511.84;124678;1115;26189;-80
2021/03/21 03:54:20;;;;;;;77.67;32.93;;;;;;;-5.58;69.02;98509.63;124740;1114;22216;-80
2021/03/21 03:57:14;;;;;;;80.23;31.60;;;;;;;-5.59;69.14;98502.64;124698;1114;23096;-80
2021/03/21 04:00:02;;;;;;;70.03;31.40;;;;;;;-5.60;69.68;98503.60;124819;1114;27364;-81
2021/03/21 04:02:57;;;;;;;73.00;32.77;;;;;;;-5.63;70.03;98497.74;124848;1114;23084;-80
2021/03/21 04:05:37;;;;;;;63.13;27.73;;;;;;;-5.65;70.26;98479.31;124698;1113;23029;-80
2021/03/21 04:08:22;;;;;;;70.47;29.07;;;;;;;-5.66;69.71;98469.70;124693;1115;23880;-80
2021/03/21 04:11:15;;;;;;;68.85;28.20;;;;;;;-5.70;69.41;98463.02;124781;1113;23144;-81
2021/03/21 04:13:47;;;;;;;62.93;28.30;;;;;;;-5.72;69.98;98459.64;124732;1115;23170;-81
2021/03/21 04:16:19;;;;;;;66.45;27.10;;;;;;;-5.70;69.49;98451.55;124688;1115;23029;-81
2021/03/21 04:19:06;;;;;;;62.40;26.83;;;;;;;-5.73;69.34;98448.20;124763;1114;26414;-80
2021/03/21 04:21:45;;;;;;;54.95;25.20;;;;;;;-5.76;69.57;98445.00;124657;1112;23238;-80
2021/03/21 04:24:11;;;;;;;60.23;24.77;;;;;;;-5.77;68.85;98445.97;124827;1112;26470;-80
2021/03/21 04:26:46;;;;;;;49.40;24.10;;;;;;;-5.79;69.35;98443.48;124776;1114;23056;-80
2021/03/21 04:29:51;;;;;;;61.20;25.83;;;;;;;-5.78;68.73;98439.00;124690;1115;23033;-81
2021/03/21 04:32:30;;;;;;;60.13;24.83;;;;;;;-5.78;69.00;98439.83;124760;1115;27361;-81
2021/03/21 04:35:03;;;;;;;50.20;24.00;;;;;;;-5.78;69.79;98439.00;124742;1115;23459;-81
2021/03/21 04:37:31;;;;;;;61.30;24.83;;;;;;;-5.77;68.71;98444.17;124733;1114;23035;-81
2021/03/21 04:40:00;;;;;;;56.80;23.47;;;;;;;-5.77;69.38;98436.22;124757;1116;26556;-81
2021/03/21 04:42:48;;;;;;;57.65;24.75;;;;;;;-5.74;69.47;98435.94;124488;1116;23029;-81
2021/03/21 04:45:28;;;;;;;55.20;23.63;;;;;;;-5.72;69.20;98425.16;124398;1116;23023;-80
2021/03/21 04:48:02;;;;;;;58.77;23.10;;;;;;;-5.68;68.91;98433.67;124429;1116;23093;-80
2021/03/21 04:50:30;;;;;;;50.90;23.17;;;;;;;-5.67;69.14;98425.57;124479;1115;23033;-80
2021/03/21 04:53:35;;;;;;;51.73;22.33;;;;;;;-5.69;69.13;98424.88;124549;1113;23103;-81
2021/03/21 04:56:27;;;;;;;45.23;20.03;;;;;;;-5.73;68.66;98423.50;124379;1116;23165;-80
2021/03/21 04:58:59;;;;;;;44.10;20.73;;;;;;;-5.72;68.91;98414.55;124424;1116;27502;-80
2021/03/21 05:01:37;;;;;;;49.90;23.87;;;;;;;-5.67;68.97;98417.61;124403;1116;23222;-80
2021/03/21 05:04:20;;;;;;;52.33;24.03;;;;;;;-5.61;68.99;98405.59;124459;1116;23258;-80
2021/03/21 05:06:56;;;;;;;53.70;22.20;;;;;;;-5.59;68.49;98409.79;124429;1115;24684;-80
2021/03/21 05:09:28;;;;;;;61.45;24.85;;;;;;;-5.53;69.13;98406.55;124409;1113;24777;-80
2021/03/21 05:12:41;;;;;;;62.33;25.77;;;;;;;-5.47;68.30;98405.16;124456;1114;23086;-80
2021/03/21 05:15:24;;;;;;;64.60;26.27;;;;;;;-5.40;68.65;98408.91;124666;1114;23110;-80
2021/03/21 05:18:10;;;;;;;51.83;24.30;;;;;;;-5.36;67.69;98393.53;124815;1115;23033;-81
2021/03/21 05:21:04;;;;;;;50.90;23.03;;;;;;;-5.40;67.71;98389.47;124775;1115;27361;-81
2021/03/21 05:23:48;;;;;;;50.37;21.37;;;;;;;-5.41;67.38;98391.30;124731;1113;23868;-81
2021/03/21 05:26:27;;;;;;;43.60;20.33;;;;;;;-5.39;67.34;98386.67;124893;1115;23104;-81
2021/03/21 05:28:57;;;;;;;41.55;19.30;;;;;;;-5.35;67.15;98377.46;124837;1115;23048;-81
2021/03/21 05:31:25;;;;;;;44.43;20.67;;;;;;;-5.28;67.09;98376.86;124745;1115;26090;-81
2021/03/21 05:33:53;;;;;;;47.05;21.40;;;;;;;-5.25;66.69;98376.58;124852;1115;23173;-81
2021/03/21 05:36:50;;;;;;;45.47;19.87;;;;;;;-5.26;66.49;98367.79;124712;1113;23030;-81
2021/03/21 05:39:28;;;;;;;49.83;22.17;;;;;;;-5.26;66.27;98370.44;124729;1113;23310;-81
2021/03/21 05:42:10;;;;;;;49.27;21.62;;;;;;;-5.25;66.16;98364.13;124710;1114;23104;-80
2021/03/21 05:45:08;;;;;;;48.37;20.33;;;;;;;-5.20;66.24;98363.70;124721;1116;23198;-81
2021/03/21 05:48:12;;;;;;;44.67;19.03;;;;;;;-5.15;66.45;98356.14;124742;1114;23033;-81
2021/03/21 05:50:58;;;;;;;37.23;17.20;;;;;;;-5.10;65.88;98356.50;124769;1114;23081;-81
2021/03/21 05:54:02;;;;;;;37.67;16.30;;;;;;;-5.02;65.95;98356.61;124781;1115;23164;-81
2021/03/21 05:56:54;;;;;;;27.03;11.77;;;;;;;-4.94;65.07;98352.38;124706;1114;27671;-81
2021/03/21 05:59:45;;;;;;;27.87;13.00;;;;;;;-4.86;64.81;98350.64;124714;1115;23081;-81
2021/03/21 06:02:54;;;;;;;33.85;13.90;;;;;;;-4.81;65.00;98343.06;124709;1113;23089;-81
2021/03/21 06:05:45;;;;;;;26.35;12.63;;;;;;;-4.70;64.78;98343.84;124794;1114;23100;-81
2021/03/21 06:08:41;;;;;;;24.43;11.77;;;;;;;-4.60;64.34;98342.78;124737;1113;22997;-81
2021/03/21 06:11:27;;;;;;;27.87;12.40;;;;;;;-4.47;64.18;98336.25;124842;1114;27431;-81
2021/03/21 06:14:31;;;;;;;22.53;11.47;;;;;;;-4.33;63.94;98337.54;124744;1114;24822;-81
2021/03/21 06:17:17;;;;;;;22.27;11.03;;;;;;;-4.15;63.03;98327.70;124768;1114;24822;-81
2021/03/21 06:20:22;;;;;;;24.40;10.60;;;;;;;-4.01;62.77;98324.48;124744;1115;23033;-81
2021/03/21 06:23:10;;;;;;;25.53;10.23;;;;;;;-3.82;62.90;98317.30;124707;1115;23083;-81
2021/03/21 06:25:49;;;;;;;19.13;8.33;;;;;;;-3.73;61.27;98316.36;124700;1115;23456;-81
2021/03/21 06:28:15;;;;;;;21.60;7.87;;;;;;;-3.69;60.43;98301.73;124680;1114;23167;-80
2021/03/21 06:30:56;;;;;;;25.70;8.83;;;;;;;-3.63;59.57;98302.92;124701;1115;23189;-81
2021/03/21 06:33:56;;;;;;;19.93;7.57;;;;;;;-3.50;60.67;98291.86;124883;1113;23040;-81
2021/03/21 06:36:34;;;;;;;17.60;7.65;;;;;;;-3.36;59.64;98295.75;124651;1116;23733;-80
2021/03/21 06:39:16;;;;;;;19.97;8.90;;;;;;;-3.27;60.14;98274.30;124733;1110;23093;-80
2021/03/21 06:41:50;;;;;;;21.63;7.87;;;;;;;-3.16;58.31;98265.18;124828;1115;23033;-80
2021/03/21 06:44:36;;;;;;;16.73;7.73;;;;;;;-3.02;58.97;98257.57;124751;1114;26456;-80
2021/03/21 06:47:37;;;;;;;14.47;6.90;;;;;;;-2.89;58.31;98245.41;124628;1114;23096;-80
2021/03/21 06:50:35;;;;;;;12.93;7.07;;;;;;;-2.74;57.93;98239.45;124680;1112;23089;-81
2021/03/21 06:53:07;;;;;;;14.20;7.27;;;;;;;-2.55;58.03;98227.61;124687;1113;23236;-80
2021/03/21 06:56:06;;;;;;;13.60;6.90;;;;;;;-2.40;56.81;98236.61;124759;1115;23031;-81
2021/03/21 06:58:57;;;;;;;12.18;6.85;;;;;;;-2.29;57.11;98235.44;124805;1115;24670;-80
2021/03/21 07:01:37;;;;;;;13.83;7.17;;;;;;;-2.14;57.75;98244.42;124698;1113;24694;-81
2021/03/21 07:04:26;;;;;;;12.00;6.50;;;;;;;-2.02;56.22;98234.23;124799;1115;23012;-81
2021/03/21 07:07:30;;;;;;;12.85;6.50;;;;;;;-1.93;56.08;98227.02;124736;1114;23250;-81
2021/03/21 07:10:34;;;;;;;13.55;6.55;;;;;;;-1.81;56.49;98227.50;124811;1115;23252;-81
2021/03/21 07:13:32;;;;;;;16.30;7.45;;;;;;;-1.72;56.03;98224.64;124765;1114;23104;-81
2021/03/21 07:16:11;;;;;;;9.40;5.00;;;;;;;-1.65;54.70;98208.74;124723;1114;23183;-81
2021/03/21 07:19:16;;;;;;;10.28;4.97;;;;;;;-1.61;52.92;98212.75;124698;1113;26041;-81
2021/03/21 07:21:43;;;;;;;6.97;3.53;;;;;;;-1.55;51.79;98209.37;124770;1114;23039;-81
2021/03/21 07:24:42;;;;;;;11.17;4.27;;;;;;;-1.51;51.90;98204.52;124690;1114;23238;-81
2021/03/21 07:27:28;;;;;;;13.78;4.67;;;;;;;-1.43;51.70;98198.32;124732;1115;26466;-81
2021/03/21 07:30:03;;;;;;;8.90;4.50;;;;;;;-1.38;50.61;98206.61;124739;1113;23211;-81
2021/03/21 07:32:52;;;;;;;10.20;4.40;;;;;;;-1.36;50.06;98205.45;124841;1115;26523;-80
2021/03/21 07:35:48;;;;;;;10.63;5.23;;;;;;;-1.32;50.50;98191.75;124755;1113;23026;-81
2021/03/21 07:38:27;;;;;;;7.67;4.30;;;;;;;-1.28;49.56;98187.71;124787;1116;23029;-80
2021/03/21 07:41:44;;;;;;;10.30;3.95;;;;;;;-1.24;50.21;98178.33;124760;1116;23200;-80
2021/03/21 07:44:49;;;;;;;12.90;4.50;;;;;;;-1.16;50.96;98176.44;124647;1113;23033;-80
2021/03/21 07:47:50;;;;;;;10.03;4.30;;;;;;;-1.10;50.12;98177.56;124734;1114;23086;-81
2021/03/21 07:50:47;;;;;;;7.83;3.63;;;;;;;-1.09;49.18;98173.07;124718;1115;23084;-80
2021/03/21 07:53:33;;;;;;;14.77;5.77;;;;;;;-1.11;49.46;98175.92;124700;1114;23254;-80
2021/03/21 07:56:08;;;;;;;9.03;4.73;;;;;;;-1.07;49.36;98176.39;124746;1115;24799;-80
2021/03/21 07:58:55;;;;;;;10.53;5.37;;;;;;;-1.07;48.43;98177.22;124445;1113;23107;-79
2021/03/21 08:01:22;;;;;;;10.20;4.17;;;;;;;-1.12;47.65;98168.08;124392;1115;23236;-79
2021/03/21 08:04:18;;;;;;;13.63;6.17;;;;;;;-1.10;48.15;98166.88;124421;1115;26127;-79
2021/03/21 08:06:51;;;;;;;8.77;4.80;;;;;;;-1.07;48.29;98169.20;124421;1116;23238;-79
2021/03/21 08:09:26;;;;;;;9.90;3.53;;;;;;;-1.06;47.15;98157.52;124481;1116;23363;-79
2021/03/21 08:12:17;;;;;;;10.47;4.63;;;;;;;-1.05;47.88;98153.81;124497;1114;23156;-80
2021/03/21 08:14:48;;;;;;;6.13;3.50;;;;;;;-1.01;48.08;98144.45;124413;1115;23248;-79
2021/03/21 08:17:29;;;;;;;7.50;3.60;;;;;;;-0.99;47.44;98145.10;124484;1114;26414;-79
2021/03/21 08:20:01;;;;;;;8.00;3.85;;;;;;;-0.97;47.38;98137.73;124443;1114;23006;-79
2021/03/21 08:22:31;;;;;;;9.20;4.30;;;;;;;-0.90;47.18;98129.83;124550;1113;23204;-79
2021/03/21 08:25:14;;;;;;;10.70;4.87;;;;;;;-0.86;47.83;98136.47;124599;1115;23042;-79
2021/03/21 08:27:40;;;;;;;28.25;9.20;;;;;;;-0.79;47.12;98125.89;124513;1114;26453;-79
2021/03/21 08:30:10;;;;;;;30.77;9.37;;;;;;;-0.73;46.87;98125.16;124721;1114;23036;-79
2021/03/21 08:32:50;;;;;;;34.77;10.10;;;;;;;-0.63;47.06;98133.76;125050;1113;23092;-79
2021/03/21 08:35:22;;;;;;;30.80;8.47;;;;;;;-0.52;48.06;98126.31;124836;1115;24403;-79
2021/03/21 08:37:51;;;;;;;11.10;5.27;;;;;;;-0.44;47.42;98121.71;124842;1115;23538;-80
2021/03/21 08:40:42;;;;;;;16.95;6.75;;;;;;;-0.49;46.96;98096.53;124920;1114;23609;-80
2021/03/21 08:43:11;;;;;;;20.87;6.73;;;;;;;-0.27;46.88;98119.67;124950;1114;26262;-81
2021/03/21 08:45:43;;;;;;;9.93;4.47;;;;;;;-0.25;46.44;98101.63;124983;1112;23070;-80
2021/03/21 08:48:27;;;;;;;34.67;9.67;;;;;;;-0.17;45.29;98099.87;124985;1113;23028;-80
2021/03/21 08:50:57;;;;;;;32.07;8.23;;;;;;;-0.09;46.23;98100.60;124893;1113;23164;-80
2021/03/21 08:53:41;;;;;;;31.80;8.13;;;;;;;0.01;46.15;98084.23;124987;1112;24004;-80
2021/03/21 08:56:23;;;;;;;14.60;4.93;;;;;;;0.11;45.35;98089.32;125165;1113;23212;-80
2021/03/21 08:59:19;;;;;;;22.63;8.13;;;;;;;0.19;45.41;98089.19;125168;1111;27398;-79
2021/03/21 09:02:05;;;;;;;8.73;4.00;;;;;;;0.34;46.21;98084.64;125004;1113;26143;-80
2021/03/21 09:04:35;;;;;;;7.43;3.90;;;;;;;0.44;45.62;98073.61;125012;1112;23963;-79
2021/03/21 09:07:26;;;;;;;14.00;6.30;;;;;;;0.52;46.14;98080.72;124642;1112;23024;-79
2021/03/21 09:10:37;;;;;;;13.80;6.30;;;;;;;0.60;44.62;98077.07;124462;1112;23039;-78
2021/03/21 09:13:06;;;;;;;12.77;5.57;;;;;;;0.66;44.88;98079.83;124645;1112;23043;-78
2021/03/21 09:15:37;;;;;;;13.23;5.87;;;;;;;0.73;45.57;98080.72;124449;1113;23084;-78
2021/03/21 09:18:16;;;;;;;16.53;7.33;;;;;;;0.80;44.48;98096.02;124424;1113;23030;-78
2021/03/21 09:21:05;;;;;;;6.55;3.20;;;;;;;0.82;45.59;98085.97;124566;1111;23098;-78
2021/03/21 09:23:43;;;;;;;10.60;4.93;;;;;;;0.81;46.78;98087.79;124414;1113;27627;-78
2021/03/21 09:26:13;;;;;;;8.83;4.17;;;;;;;0.77;46.87;98097.25;124461;1113;23096;-78
2021/03/21 09:28:46;;;;;;;8.03;3.83;;;;;;;0.70;47.62;98078.41;124574;1111;24777;-77
2021/03/21 09:31:15;;;;;;;14.77;5.27;;;;;;;0.59;48.12;98088.83;124440;1113;26462;-77
2021/03/21 09:33:58;;;;;;;9.25;3.98;;;;;;;0.57;49.72;98094.38;124805;1111;23087;-77
2021/03/21 09:36:34;;;;;;;7.10;3.70;;;;;;;0.53;49.46;98085.03;124465;1113;23107;-77
2021/03/21 09:39:16;;;;;;;5.10;3.45;;;;;;;0.54;50.75;98081.34;124386;1113;23194;-77
2021/03/21 09:41:48;;;;;;;9.30;4.43;;;;;;;0.56;51.59;98081.98;124526;1113;26526;-77
2021/03/21 09:44:41;;;;;;;10.80;4.40;;;;;;;0.59;52.22;98078.93;124624;1111;26083;-77
2021/03/21 09:47:29;;;;;;;11.77;4.70;;;;;;;0.62;51.00;98083.06;124447;1113;23233;-77
2021/03/21 09:50:00;;;;;;;12.43;5.00;;;;;;;0.67;51.70;98080.65;124550;1111;24818;-77
2021/03/21 09:52:45;;;;;;;13.30;5.40;;;;;;;0.78;54.20;98081.98;124608;1111;23030;-77
2021/03/21 09:55:26;;;;;;;8.73;4.33;;;;;;;0.93;53.87;98080.08;124607;1113;23106;-77
2021/03/21 09:57:59;;;;;;;8.57;3.40;;;;;;;0.92;55.68;98075.72;124486;1113;23029;-77
2021/03/21 10:00:35;;;;;;;7.20;4.03;;;;;;;0.90;55.40;98081.30;124787;1111;23356;-77
2021/03/21 10:03:05;;;;;;;8.65;5.25;;;;;;;0.92;58.22;98086.45;124415;1113;23039;-77
2021/03/21 10:05:48;;;;;;;7.43;4.60;;;;;;;0.93;57.46;98083.58;124423;1113;26481;-77
2021/03/21 10:08:34;;;;;;;8.50;4.80;;;;;;;0.89;59.03;98073.45;124665;1111;23084;-77
2021/03/21 10:11:11;;;;;;;12.13;6.22;;;;;;;0.84;58.93;98070.52;124563;1111;23177;-77
2021/03/21 10:13:41;;;;;;;16.33;7.33;;;;;;;0.84;59.06;98075.88;124456;1113;23027;-77
2021/03/21 10:16:09;;;;;;;;;;;;;;;0.79;59.59;98064.89;124581;1116;23033;-77
2021/03/21 10:18:45;;;;;;;19.03;8.70;;;;;;;0.78;58.77;98068.59;124381;1115;21551;-77
2021/03/21 10:21:23;;;;;;;17.40;7.50;;;;;;;0.83;59.90;98066.16;124389;1111;23238;-78
2021/03/21 10:23:51;;;;;;;21.83;8.17;;;;;;;0.80;58.72;98062.03;124725;1113;26231;-78
2021/03/21 10:26:23;;;;;;;25.00;8.10;;;;;;;0.80;58.63;98063.86;124871;1111;23025;-75
2021/03/21 10:29:00;;;;;;;17.53;6.50;;;;;;;0.78;58.09;98074.80;124865;1111;23080;-77
2021/03/21 10:31:33;;;;;;;16.80;7.07;;;;;;;0.72;57.21;98060.29;124622;1113;23031;-76
2021/03/21 10:34:06;;;;;;;13.63;6.60;;;;;;;0.72;58.73;98064.83;124815;1110;23030;-77
2021/03/21 10:36:42;;;;;;;12.73;5.80;;;;;;;0.65;58.05;98058.58;124909;1111;24634;-77
2021/03/21 10:39:32;;;;;;;13.47;6.87;;;;;;;0.54;58.62;98062.59;124845;1111;23161;-78
2021/03/21 10:42:02;;;;;;;8.60;5.77;;;;;;;0.44;60.09;98065.57;124776;1113;23100;-78
2021/03/21 10:44:32;;;;;;;12.80;5.93;;;;;;;0.29;61.47;98070.16;124619;1113;23030;-78
2021/03/21 10:47:22;;;;;;;14.27;7.60;;;;;;;0.16;63.46;98068.99;124563;1113;23028;-78
2021/03/21 10:49:59;;;;;;;18.27;7.87;;;;;;;0.01;65.69;98070.86;124819;1112;23003;-78
2021/03/21 10:53:04;;;;;;;18.50;8.07;;;;;;;-0.13;67.14;98069.85;124848;1111;23089;-76
2021/03/21 10:55:34;;;;;;;18.10;9.00;;;;;;;-0.23;66.45;98059.45;124629;1113;26730;-76
2021/03/21 10:58:29;;;;;;;14.47;7.90;;;;;;;-0.23;67.48;98054.09;124983;1111;23037;-76
2021/03/21 11:01:18;;;;;;;19.60;9.75;;;;;;;-0.29;69.48;98054.00;124708;1111;23220;-77
2021/03/21 11:04:09;;;;;;;17.77;9.65;;;;;;;-0.30;69.86;98057.68;124859;1111;23097;-77
2021/03/21 11:06:52;;;;;;;25.60;11.47;;;;;;;-0.32;69.45;98049.87;124636;1113;23083;-77
2021/03/21 11:09:20;;;;;;;25.83;11.90;;;;;;;-0.35;70.57;98042.20;124646;1112;23076;-77
2021/03/21 11:11:49;;;;;;;20.70;11.23;;;;;;;-0.36;69.96;98051.23;124760;1111;23040;-78
2021/03/21 11:14:30;;;;;;;;;;;;;;;-0.34;71.72;98029.65;124474;1113;23101;-77
2021/03/21 11:16:57;;;;;;;16.00;8.80;;;;;;;-0.41;71.28;98033.08;124604;1111;21534;-77
2021/03/21 11:19:34;;;;;;;19.13;8.60;;;;;;;-0.43;72.81;98039.61;124449;1113;23129;-77
2021/03/21 11:22:19;;;;;;;17.67;9.63;;;;;;;-0.49;72.22;98030.48;124621;1113;24671;-77
2021/03/21 11:24:46;;;;;;;16.50;9.17;;;;;;;-0.51;73.18;98040.55;124561;1111;23083;-77
2021/03/21 11:27:24;;;;;;;19.90;11.00;;;;;;;-0.46;72.66;98042.65;124624;1111;23135;-77
2021/03/21 11:29:50;;;;;;;25.47;12.63;;;;;;;-0.46;72.78;98039.98;124529;1112;26465;-77
2021/03/21 11:32:21;;;;;;;21.97;11.27;;;;;;;-0.47;73.82;98041.01;124448;1111;27549;-77
2021/03/21 11:35:08;;;;;;;22.60;11.27;;;;;;;-0.50;74.47;98039.52;124388;1114;23208;-77
2021/03/21 11:37:40;;;;;;;21.43;10.20;;;;;;;-0.52;74.50;98027.36;124421;1116;26437;-77
2021/03/21 11:40:35;;;;;;;25.77;12.07;;;;;;;-0.53;74.39;98031.88;124475;1113;24632;-77
2021/03/21 11:43:05;;;;;;;18.85;10.15;;;;;;;-0.41;74.53;98026.87;124445;1115;23212;-77
2021/03/21 11:45:37;;;;;;;;;;;;;;;-0.33;75.31;98023.30;124446;1115;23084;-77
2021/03/21 11:48:09;;;;;;;15.03;7.93;;;;;;;-0.29;75.58;98014.69;124644;1113;24191;-77
2021/03/21 11:50:40;;;;;;;17.77;10.13;;;;;;;-0.26;74.77;98013.50;124580;1111;23086;-77
2021/03/21 11:53:17;;;;;;;16.10;8.70;;;;;;;-0.26;75.92;98013.50;124435;1116;23083;-77
2021/03/21 11:55:52;;;;;;;17.00;8.70;;;;;;;-0.33;75.26;98018.77;124448;1113;27517;-77
2021/03/21 11:58:30;;;;;;;17.23;8.50;;;;;;;-0.36;75.09;98013.78;124531;1113;23058;-77
2021/03/21 12:01:17;;;;;;;14.00;8.93;;;;;;;-0.36;74.17;98007.61;124683;1113;23239;-77
2021/03/21 12:04:04;;;;;;;17.30;9.10;;;;;;;-0.34;75.32;98002.90;124766;1112;23181;-77
2021/03/21 12:06:43;;;;;;;15.03;9.03;;;;;;;-0.36;73.83;98000.41;124653;1113;23007;-77
2021/03/21 12:09:31;;;;;;;14.90;7.78;;;;;;;-0.39;74.63;97996.27;124697;1111;23100;-77
2021/03/21 12:12:02;;;;;;;17.67;9.37;;;;;;;-0.39;74.02;97992.74;124650;1113;23001;-77
2021/03/21 12:14:32;;;;;;;17.63;9.63;;;;;;;-0.38;73.77;97991.73;124614;1115;27335;-77